• Join FlightAware (Why Join?)
  • Login
  • US Flag 
04:41AM EDT


 

Airport Tracker/Info


-or-


 

Live Flight TrackerFlight Track Log ✈ SWA1761 ✈ 29-Apr-2013 ✈ KMDW - KMSY

Flight Track Log - Related Links

Times and Time Zones

All times are in EDT time to prevent confusion due to time zone crossing. See the SWA1761 flight status page for this flight to view local times or setup timezone preferences in your user account.

Time Position Orientation Groundspeed Altitude Reporting Facility
EDT Latitude Longitude Course Direction KTS MPH feet Rate Location/Type
03:58PM 41.7667 -87.7667 222° Southwest 144 166 2,000  Level Chicago TRACON
03:59PM 41.7050 -87.8403 222° Southwest 194 223 5,900 2,760 Climbing Chicago Center
04:00PM 41.6331 -87.8850 205° Southwest 237 273 9,600 2,940 Climbing Chicago Center
04:01PM 41.5608 -87.9314 206° Southwest 283 326 12,000 1,740 Climbing Chicago Center
04:02PM 41.4872 -87.9783 206° Southwest 292 336 13,300 2,340 Climbing Chicago Center
04:03PM 41.3931 -88.0389 206° Southwest 336 387 16,900 3,300 Climbing Chicago Center
04:04PM 41.2936 -88.0683 193° South 369 425 20,200 3,000 Climbing Chicago Center
04:06PM 41.1892 -88.1014 193° South 382 440 23,100 2,460 Climbing Chicago Center
04:07PM 41.0794 -88.1331 192° South 402 463 25,400 2,400 Climbing Chicago Center
04:08PM 40.9383 -88.1717 192° South 428 493 28,100 2,400 Climbing Chicago Center
04:09PM 40.8197 -88.2056 192° South 436 502 30,400 2,220 Climbing Chicago Center
04:10PM 40.7014 -88.2394 192° South 438 504 32,700 2,040 Climbing Chicago Center
04:11PM 40.5828 -88.2678 190° South 435 501 34,700 1,860 Climbing Chicago Center
04:12PM 40.4650 -88.2956 190° South 433 498 36,600 1,800 Climbing Chicago Center
04:13PM 40.3253 -88.3292 190° South 428 493 38,500 1,500 Climbing Chicago Center
04:14PM 40.2086 -88.3578 191° South 429 494 39,700 780 Climbing Chicago Center
04:15PM 40.1228 -88.3789 191° South 428 493 40,000 120 Climbing Kansas City Center
04:16PM 39.9825 -88.4119 190° South 427 491 40,000  Level Kansas City Center
04:17PM 39.8667 -88.4381 190° South 424 488 40,000  Level Kansas City Center
04:18PM 39.7500 -88.4656 190° South 424 488 40,000  Level Kansas City Center
04:19PM 39.6342 -88.4933 190° South 425 489 40,000  Level Kansas City Center
04:20PM 39.5150 -88.5236 191° South 430 495 40,000  Level Kansas City Center
04:21PM 39.3703 -88.5578 190° South 435 501 40,000  Level Kansas City Center
04:22PM 39.2531 -88.5858 190° South 431 496 40,000  Level Kansas City Center
04:23PM 39.1497 -88.6086 190° South 435 501 40,000  Level Kansas City Center
04:24PM 39.0081 -88.6417 190° South 432 497 40,000  Level Kansas City Center
04:25PM 38.8914 -88.6694 190° South 428 493 40,000  Level Kansas City Center
04:26PM 38.7744 -88.6958 190° South 425 489 40,000  Level Kansas City Center
04:27PM 38.6567 -88.7225 190° South 427 491 40,000  Level Kansas City Center
04:28PM 38.5214 -88.7544 190° South 431 496 40,000  Level Kansas City Center
04:29PM 38.4039 -88.7819 190° South 430 495 40,000  Level Kansas City Center
04:30PM 38.3014 -88.8039 190° South 431 496 40,000  Level Kansas City Center
04:31PM 38.1586 -88.8353 190° South 433 498 40,000  Level Kansas City Center
04:32PM 38.0400 -88.8622 190° South 432 497 40,000  Level Kansas City Center
04:33PM 37.9214 -88.8889 190° South 432 497 40,000  Level Kansas City Center
04:34PM 37.7881 -88.9189 190° South 432 497 40,000  Level Kansas City Center
04:35PM 37.6711 -88.9439 190° South 427 491 40,000  Level Kansas City Center
04:36PM 37.5533 -88.9697 190° South 428 493 40,000  Level Kansas City Center
04:37PM 37.4361 -88.9986 191° South 427 491 40,000  Level Kansas City Center
04:38PM 37.3183 -89.0247 190° South 428 493 40,000  Level Kansas City Center
04:39PM 37.2000 -89.0494 189° South 429 494 40,000  Level Kansas City Center
04:40PM 37.0794 -89.0803 192° South 428 493 40,000  Level Memphis Center
04:41PM 36.9589 -89.1056 190° South 428 493 40,000  Level Memphis Center
04:42PM 36.8403 -89.1333 191° South 428 493 40,000  Level Memphis Center
04:43PM 36.7261 -89.1558 189° South 428 493 40,000  Level Memphis Center
04:44PM 36.6094 -89.1808 190° South 428 493 40,000  Level Memphis Center
04:45PM 36.4908 -89.2058 190° South 428 493 40,000  Level Memphis Center
04:46PM 36.3597 -89.2308 189° South 428 493 40,000  Level Memphis Center
04:47PM 36.2369 -89.2556 189° South 440 506 40,000  Level Memphis Center
04:48PM 36.1247 -89.2828 191° South 445 512 40,000  Level Memphis Center
04:49PM 36.0103 -89.3075 190° South 435 501 40,000  Level Memphis Center
04:50PM 35.8917 -89.3319 189° South 428 493 40,000  Level Memphis Center
04:51PM 35.7731 -89.3567 190° South 428 493 40,000  Level Memphis Center
04:52PM 35.6731 -89.3783 190° South 428 493 40,000  Level Memphis Center
04:53PM 35.5564 -89.4053 191° South 417 480 40,000  Level Memphis Center
04:54PM 35.4314 -89.4294 189° South 422 486 40,000  Level Memphis Center
04:55PM 35.3128 -89.4536 189° South 427 491 40,000  Level Memphis Center
04:56PM 35.1983 -89.4778 190° South 428 493 40,000  Level Memphis Center
04:57PM 35.0836 -89.5019 190° South 428 493 40,000  Level Memphis Center
04:58PM 34.9669 -89.5233 189° South 428 493 40,000  Level Memphis Center
04:59PM 34.8503 -89.5447 189° South 428 493 40,000  Level Memphis Center
05:00PM 34.7419 -89.5686 190° South 428 493 40,000  Level Memphis Center
05:01PM 34.6272 -89.5975 192° South 428 493 40,000  Level Memphis Center
05:02PM 34.5128 -89.6186 189° South 423 487 40,000  Level Memphis Center
05:03PM 34.4022 -89.6447 191° South 423 487 40,000  Level Memphis Center
05:04PM 34.2750 -89.6708 190° South 417 480 40,000  Level Memphis Center
05:05PM 34.1647 -89.6944 190° South 412 474 40,000  Level Memphis Center
05:06PM 34.0500 -89.7178 190° South 412 474 40,000  Level Memphis Center
05:07PM 33.9353 -89.7389 189° South 412 474 40,000  Level Memphis Center
05:08PM 33.8228 -89.7647 191° South 412 474 40,000  Level Memphis Center
05:09PM 33.7144 -89.7878 190° South 407 468 40,000  Level Memphis Center
05:10PM 33.5997 -89.8111 190° South 412 474 40,000  Level Memphis Center
05:11PM 33.4850 -89.8342 190° South 412 474 40,000  Level Memphis Center
05:12PM 33.3661 -89.8572 189° South 418 481 40,000  Level Memphis Center
05:13PM 33.2492 -89.8803 189° South 424 488 40,000 -540 Level Memphis Center
05:14PM 33.1344 -89.9033 190° South 424 488 39,000 -900 Descending Memphis Center
05:15PM 33.0406 -89.9211 189° South 430 495 38,200 -900 Descending Memphis Center
05:16PM 32.9156 -89.9464 190° South 425 489 37,200 -960 Descending Memphis Center
05:17PM 32.7967 -89.9692 189° South 430 495 36,300 -600 Descending Memphis Center
05:18PM 32.6817 -89.9919 189° South 430 495 36,000 -180 Descending Memphis Center
05:19PM 32.5650 -90.0147 189° South 430 495 36,000  Level Memphis Center
05:20PM 32.4461 -90.0372 189° South 430 495 36,000  Level Memphis Center
05:21PM 32.3272 -90.0622 190° South 430 495 36,000 -120 Level Memphis Center
05:22PM 32.2081 -90.0847 189° South 430 495 35,800 -540 Descending Memphis Center
05:23PM 32.0892 -90.1072 189° South 430 495 35,000 -1,560 Descending Memphis Center
05:25PM 31.8978 -90.1458 190° South 430 495 31,900 -2,280 Descending Houston Center
05:26PM 31.7792 -90.1672 189° South 431 496 29,200 -1,920 Descending Houston Center
05:27PM 31.6586 -90.1917 190° South 438 504 28,000 -600 Descending Houston Center
05:28PM 31.5425 -90.2128 189° South 428 493 28,000 -180 Level Houston Center
05:29PM 31.4289 -90.2342 189° South 419 482 27,700 -1,080 Descending Houston Center
05:30PM 31.2914 -90.2567 188° South 413 475 25,800 -2,040 Descending Houston Center
05:31PM 31.1808 -90.2494 177° South 404 465 23,500 -2,280 Descending Houston Center
05:32PM 31.0711 -90.2419 177° South 399 459 21,200 -2,220 Descending Houston Center
05:33PM 30.9644 -90.2328 176° South 387 445 19,000 -2,280 Descending Houston Center
05:34PM 30.8694 -90.2275 177° South 365 420 17,100 -2,220 Descending Houston Center
05:35PM 30.7711 -90.2194 176° South 350 403 15,100 -2,100 Descending Houston Center
05:35PM 30.7478 -90.2178 176° South 352 405 14,500 -2,340 Descending Houston Center
05:36PM 30.6997 -90.2053 167° South 350 403 13,200 -2,040 Descending Houston Center
05:36PM 30.6564 -90.1867 160° South 344 396 12,400 -1,980 Descending Houston Center
05:37PM 30.6022 -90.1658 162° South 337 388 11,200 -1,860 Descending Houston Center
05:37PM 30.5694 -90.1522 160° South 335 386 10,500 -1,380 Descending Houston Center
05:38PM 30.5219 -90.1331 161° South 307 353 9,800 -1,500 Descending Houston Center
05:38PM 30.4925 -90.1194 158° South 309 356 9,000 -2,100 Descending Houston Center
05:39PM 30.4414 -90.0978 160° South 276 318 7,500 -1,920 Descending Houston Center
05:40PM 30.4200 -90.0892 161° South 284 327 7,000 -1,860 Descending Houston Center
05:40PM 30.3744 -90.0933 185° South 272 313 5,800 -1,980 Descending Houston Center
05:41PM 30.3367 -90.1136 205° Southwest 275 316 5,000 -840 Descending Houston Center
05:41PM 30.3067 -90.1297 205° Southwest 265 305 5,000 -240 Level Houston Center
05:42PM 30.2703 -90.1467 202° Southwest 268 308 4,800 -420 Descending Houston Center
05:42PM 30.2408 -90.1614 203° Southwest 253 291 4,600 -600 Descending Houston Center
05:43PM 30.2119 -90.1764 204° Southwest 249 287 4,200 -840 Descending Houston Center
05:43PM 30.1892 -90.1875 203° Southwest 198 228 3,800 -1,020 Descending Houston Center
05:44PM 30.1611 -90.1964 195° South 216 249 3,200 -1,020 Descending Houston Center
05:44PM 30.1394 -90.2017 192° South 190 219 2,900 -1,020 Descending Houston Center
05:45PM 30.1094 -90.2131 198° South 201 231 2,200 -1,020 Descending Houston Center
05:46PM 30.0528 -90.2300 195° South 188 216 1,100 -960 Descending Houston Center
05:47PM 30.0181 -90.2422 197° South 154 177 300 -480 Descending Houston Center
05:48PM 29.9828 -90.2542 196° South 150 173 200 -120 Descending Houston Center
05:50PM 29.9833 -90.2500 190° South  Level FlightAware Approximate
05:57PM 29.9934 -90.2580 190° South  Level Estimated